sensor_id;sensor_type;location;lat;lon;timestamp;temperature;humidity
20891;DHT22;10605;52.968;8.844;2022-10-15T01:01:41;11.90;99.90
20891;DHT22;10605;52.968;8.844;2022-10-15T01:08:59;12.00;99.90
20891;DHT22;10605;52.968;8.844;2022-10-15T05:39:43;11.90;99.90
20891;DHT22;10605;52.968;8.844;2022-10-15T05:42:11;11.80;99.90
20891;DHT22;10605;52.968;8.844;2022-10-15T05:44:37;11.70;99.90
20891;DHT22;10605;52.968;8.844;2022-10-15T05:47:02;11.70;99.90
20891;DHT22;10605;52.968;8.844;2022-10-15T05:49:28;11.70;99.90
20891;DHT22;10605;52.968;8.844;2022-10-15T05:51:54;11.60;99.90
20891;DHT22;10605;52.968;8.844;2022-10-15T05:54:20;11.40;99.90
20891;DHT22;10605;52.968;8.844;2022-10-15T05:56:46;11.40;99.90
20891;DHT22;10605;52.968;8.844;2022-10-15T05:59:12;11.50;99.90
20891;DHT22;10605;52.968;8.844;2022-10-15T06:04:16;11.50;99.90
20891;DHT22;10605;52.968;8.844;2022-10-15T06:06:42;11.60;99.90
20891;DHT22;10605;52.968;8.844;2022-10-15T06:09:07;11.60;99.90
20891;DHT22;10605;52.968;8.844;2022-10-15T06:11:35;11.60;99.90
20891;DHT22;10605;52.968;8.844;2022-10-15T06:14:01;11.50;99.90
20891;DHT22;10605;52.968;8.844;2022-10-15T06:16:26;11.40;99.90
20891;DHT22;10605;52.968;8.844;2022-10-15T06:18:52;11.50;99.90
20891;DHT22;10605;52.968;8.844;2022-10-15T06:21:20;11.50;99.90
20891;DHT22;10605;52.968;8.844;2022-10-15T06:23:46;11.50;99.90
20891;DHT22;10605;52.968;8.844;2022-10-15T06:26:14;11.60;99.90
20891;DHT22;10605;52.968;8.844;2022-10-15T06:28:40;11.70;99.90
20891;DHT22;10605;52.968;8.844;2022-10-15T06:31:06;11.80;99.90
20891;DHT22;10605;52.968;8.844;2022-10-15T06:33:33;12.00;99.90
20891;DHT22;10605;52.968;8.844;2022-10-15T06:36:03;12.20;99.90
20891;DHT22;10605;52.968;8.844;2022-10-15T06:38:29;12.60;99.90
20891;DHT22;10605;52.968;8.844;2022-10-15T06:40:55;12.80;99.90
20891;DHT22;10605;52.968;8.844;2022-10-15T06:43:23;13.00;99.90
20891;DHT22;10605;52.968;8.844;2022-10-15T06:45:49;13.00;99.90
20891;DHT22;10605;52.968;8.844;2022-10-15T06:48:15;13.00;99.90
20891;DHT22;10605;52.968;8.844;2022-10-15T06:50:46;13.10;99.90
20891;DHT22;10605;52.968;8.844;2022-10-15T06:53:27;13.50;99.90
20891;DHT22;10605;52.968;8.844;2022-10-15T06:56:12;13.90;99.90
20891;DHT22;10605;52.968;8.844;2022-10-15T06:59:19;14.00;99.90
20891;DHT22;10605;52.968;8.844;2022-10-15T07:09:00;14.80;99.90
20891;DHT22;10605;52.968;8.844;2022-10-15T07:11:42;15.60;99.90
20891;DHT22;10605;52.968;8.844;2022-10-15T07:14:30;16.10;99.90
20891;DHT22;10605;52.968;8.844;2022-10-15T07:31:35;17.00;99.90
20891;DHT22;10605;52.968;8.844;2022-10-15T07:40:40;16.50;99.90
20891;DHT22;10605;52.968;8.844;2022-10-15T07:43:09;16.20;99.90
20891;DHT22;10605;52.968;8.844;2022-10-15T07:45:40;16.50;99.90
20891;DHT22;10605;52.968;8.844;2022-10-15T07:48:15;16.80;99.90
20891;DHT22;10605;52.968;8.844;2022-10-15T07:50:41;16.60;99.90
20891;DHT22;10605;52.968;8.844;2022-10-15T07:53:09;16.60;99.90
20891;DHT22;10605;52.968;8.844;2022-10-15T07:55:36;16.60;99.90
20891;DHT22;10605;52.968;8.844;2022-10-15T07:58:05;16.50;99.90
20891;DHT22;10605;52.968;8.844;2022-10-15T08:00:33;16.60;99.90
20891;DHT22;10605;52.968;8.844;2022-10-15T08:02:59;16.60;99.90
20891;DHT22;10605;52.968;8.844;2022-10-15T08:05:34;16.60;99.90
20891;DHT22;10605;52.968;8.844;2022-10-15T08:08:09;16.30;99.90
20891;DHT22;10605;52.968;8.844;2022-10-15T08:10:35;15.90;99.90
20891;DHT22;10605;52.968;8.844;2022-10-15T08:13:03;16.40;99.90
20891;DHT22;10605;52.968;8.844;2022-10-15T08:15:32;16.60;99.90
20891;DHT22;10605;52.968;8.844;2022-10-15T08:17:58;17.00;99.90
20891;DHT22;10605;52.968;8.844;2022-10-15T08:20:40;17.40;99.90
20891;DHT22;10605;52.968;8.844;2022-10-15T08:23:13;18.40;99.90
20891;DHT22;10605;52.968;8.844;2022-10-15T08:25:39;18.00;99.90
20891;DHT22;10605;52.968;8.844;2022-10-15T08:28:07;17.50;99.90
20891;DHT22;10605;52.968;8.844;2022-10-15T08:30:35;17.10;99.90
20891;DHT22;10605;52.968;8.844;2022-10-15T08:33:03;16.70;99.90
20891;DHT22;10605;52.968;8.844;2022-10-15T08:35:30;16.30;99.90
20891;DHT22;10605;52.968;8.844;2022-10-15T08:38:03;16.50;99.90
20891;DHT22;10605;52.968;8.844;2022-10-15T08:40:32;16.40;99.90
20891;DHT22;10605;52.968;8.844;2022-10-15T08:43:28;16.30;99.90
20891;DHT22;10605;52.968;8.844;2022-10-15T08:56:16;16.20;99.90
20891;DHT22;10605;52.968;8.844;2022-10-15T08:58:52;16.10;99.90
20891;DHT22;10605;52.968;8.844;2022-10-15T09:05:10;16.30;99.90
20891;DHT22;10605;52.968;8.844;2022-10-15T09:10:45;16.20;99.90
20891;DHT22;10605;52.968;8.844;2022-10-15T09:13:45;16.20;99.90
20891;DHT22;10605;52.968;8.844;2022-10-15T09:16:23;16.20;99.90
20891;DHT22;10605;52.968;8.844;2022-10-15T09:18:51;16.50;99.90
20891;DHT22;10605;52.968;8.844;2022-10-15T09:21:25;16.70;99.90
20891;DHT22;10605;52.968;8.844;2022-10-15T09:23:55;16.80;99.90
20891;DHT22;10605;52.968;8.844;2022-10-15T09:26:46;16.80;99.90
20891;DHT22;10605;52.968;8.844;2022-10-15T09:29:19;16.90;99.90
20891;DHT22;10605;52.968;8.844;2022-10-15T09:32:22;16.80;99.90
20891;DHT22;10605;52.968;8.844;2022-10-15T09:42:53;17.20;99.90
20891;DHT22;10605;52.968;8.844;2022-10-15T09:45:21;17.30;99.90
20891;DHT22;10605;52.968;8.844;2022-10-15T09:47:51;17.60;99.90
20891;DHT22;10605;52.968;8.844;2022-10-15T09:50:21;17.30;99.90
20891;DHT22;10605;52.968;8.844;2022-10-15T09:55:36;17.40;99.90
20891;DHT22;10605;52.968;8.844;2022-10-15T10:01:00;17.70;99.90
20891;DHT22;10605;52.968;8.844;2022-10-15T10:03:30;19.60;99.90
20891;DHT22;10605;52.968;8.844;2022-10-15T10:06:07;21.30;99.90
20891;DHT22;10605;52.968;8.844;2022-10-15T10:09:01;21.60;99.90
20891;DHT22;10605;52.968;8.844;2022-10-15T10:11:45;22.20;99.90
20891;DHT22;10605;52.968;8.844;2022-10-15T10:14:29;22.30;99.90
20891;DHT22;10605;52.968;8.844;2022-10-15T10:17:18;22.20;99.90
20891;DHT22;10605;52.968;8.844;2022-10-15T10:19:45;22.40;99.90
20891;DHT22;10605;52.968;8.844;2022-10-15T10:22:29;23.10;99.90
20891;DHT22;10605;52.968;8.844;2022-10-15T10:27:47;23.90;99.90
20891;DHT22;10605;52.968;8.844;2022-10-15T10:30:22;24.10;99.90
20891;DHT22;10605;52.968;8.844;2022-10-15T10:32:57;23.80;99.90
20891;DHT22;10605;52.968;8.844;2022-10-15T10:35:33;23.70;99.90
20891;DHT22;10605;52.968;8.844;2022-10-15T10:38:01;23.80;99.90
20891;DHT22;10605;52.968;8.844;2022-10-15T10:40:33;23.70;99.90
20891;DHT22;10605;52.968;8.844;2022-10-15T10:48:39;24.50;99.90
20891;DHT22;10605;52.968;8.844;2022-10-15T10:51:12;24.70;99.90
20891;DHT22;10605;52.968;8.844;2022-10-15T10:54:13;25.10;99.90
20891;DHT22;10605;52.968;8.844;2022-10-15T10:56:43;23.10;99.90
20891;DHT22;10605;52.968;8.844;2022-10-15T10:59:16;21.30;99.90
20891;DHT22;10605;52.968;8.844;2022-10-15T11:01:44;19.80;99.90
20891;DHT22;10605;52.968;8.844;2022-10-15T11:04:19;19.10;99.90
20891;DHT22;10605;52.968;8.844;2022-10-15T11:09:35;18.10;99.90
20891;DHT22;10605;52.968;8.844;2022-10-15T11:20:31;20.90;99.90
20891;DHT22;10605;52.968;8.844;2022-10-15T11:28:28;21.40;99.90
20891;DHT22;10605;52.968;8.844;2022-10-15T11:34:34;22.20;99.90
20891;DHT22;10605;52.968;8.844;2022-10-15T11:44:10;22.70;99.90
20891;DHT22;10605;52.968;8.844;2022-10-15T11:54:12;22.80;99.90
20891;DHT22;10605;52.968;8.844;2022-10-15T11:56:44;21.30;99.90
20891;DHT22;10605;52.968;8.844;2022-10-15T11:59:34;20.70;99.90
20891;DHT22;10605;52.968;8.844;2022-10-15T12:02:55;20.20;99.90
20891;DHT22;10605;52.968;8.844;2022-10-15T12:08:56;19.20;99.90
20891;DHT22;10605;52.968;8.844;2022-10-15T12:14:47;18.90;99.90
20891;DHT22;10605;52.968;8.844;2022-10-15T12:17:38;18.90;99.90
20891;DHT22;10605;52.968;8.844;2022-10-15T12:23:48;21.00;99.90
20891;DHT22;10605;52.968;8.844;2022-10-15T12:26:33;21.90;99.90
20891;DHT22;10605;52.968;8.844;2022-10-15T12:29:20;21.70;99.90
20891;DHT22;10605;52.968;8.844;2022-10-15T12:32:23;22.00;99.90
20891;DHT22;10605;52.968;8.844;2022-10-15T12:35:05;21.60;99.90
20891;DHT22;10605;52.968;8.844;2022-10-15T12:37:34;20.50;99.90
20891;DHT22;10605;52.968;8.844;2022-10-15T12:40:05;19.90;99.90
20891;DHT22;10605;52.968;8.844;2022-10-15T12:42:59;20.10;99.90
20891;DHT22;10605;52.968;8.844;2022-10-15T12:45:36;19.90;99.90
20891;DHT22;10605;52.968;8.844;2022-10-15T12:50:31;20.00;99.90
20891;DHT22;10605;52.968;8.844;2022-10-15T12:52:59;19.80;99.90
20891;DHT22;10605;52.968;8.844;2022-10-15T12:55:36;19.60;99.90
20891;DHT22;10605;52.968;8.844;2022-10-15T13:00:56;19.40;99.90
20891;DHT22;10605;52.968;8.844;2022-10-15T13:03:29;19.40;99.90
20891;DHT22;10605;52.968;8.844;2022-10-15T13:16:57;20.20;99.90
20891;DHT22;10605;52.968;8.844;2022-10-15T13:19:37;20.30;99.90
20891;DHT22;10605;52.968;8.844;2022-10-15T13:22:20;19.90;99.90
20891;DHT22;10605;52.968;8.844;2022-10-15T13:24:46;19.60;99.90
20891;DHT22;10605;52.968;8.844;2022-10-15T13:27:15;19.30;99.90
20891;DHT22;10605;52.968;8.844;2022-10-15T13:30:14;19.20;99.90
20891;DHT22;10605;52.968;8.844;2022-10-15T13:32:50;19.50;99.90
20891;DHT22;10605;52.968;8.844;2022-10-15T13:35:19;20.30;99.90
20891;DHT22;10605;52.968;8.844;2022-10-15T13:37:46;20.80;99.90
20891;DHT22;10605;52.968;8.844;2022-10-15T13:40:21;21.20;99.90
20891;DHT22;10605;52.968;8.844;2022-10-15T13:43:05;21.40;99.90
20891;DHT22;10605;52.968;8.844;2022-10-15T13:45:34;21.10;99.90
20891;DHT22;10605;52.968;8.844;2022-10-15T13:48:02;20.90;99.90
20891;DHT22;10605;52.968;8.844;2022-10-15T13:50:35;20.50;99.90
20891;DHT22;10605;52.968;8.844;2022-10-15T13:53:21;19.90;99.90
20891;DHT22;10605;52.968;8.844;2022-10-15T13:56:00;19.60;99.90
20891;DHT22;10605;52.968;8.844;2022-10-15T13:58:33;19.40;99.90
20891;DHT22;10605;52.968;8.844;2022-10-15T14:01:09;19.50;99.90
20891;DHT22;10605;52.968;8.844;2022-10-15T14:08:45;18.90;99.90
20891;DHT22;10605;52.968;8.844;2022-10-15T14:11:14;18.70;99.90
20891;DHT22;10605;52.968;8.844;2022-10-15T14:13:48;18.60;99.90
20891;DHT22;10605;52.968;8.844;2022-10-15T14:19:28;18.00;99.90
20891;DHT22;10605;52.968;8.844;2022-10-15T14:21:49;18.10;99.90
20891;DHT22;10605;52.968;8.844;2022-10-15T14:24:25;17.90;99.90
20891;DHT22;10605;52.968;8.844;2022-10-15T14:33:51;17.70;99.90
20891;DHT22;10605;52.968;8.844;2022-10-15T14:36:31;17.60;99.90
20891;DHT22;10605;52.968;8.844;2022-10-15T14:45:18;17.50;99.90
20891;DHT22;10605;52.968;8.844;2022-10-15T14:47:50;17.50;99.90
20891;DHT22;10605;52.968;8.844;2022-10-15T14:50:23;17.50;99.90
20891;DHT22;10605;52.968;8.844;2022-10-15T14:52:53;17.40;99.90
20891;DHT22;10605;52.968;8.844;2022-10-15T14:55:29;17.30;99.90
20891;DHT22;10605;52.968;8.844;2022-10-15T14:58:06;17.30;99.90
20891;DHT22;10605;52.968;8.844;2022-10-15T15:00:40;17.20;99.90
20891;DHT22;10605;52.968;8.844;2022-10-15T15:03:21;17.10;99.90
20891;DHT22;10605;52.968;8.844;2022-10-15T15:05:52;17.00;99.90
20891;DHT22;10605;52.968;8.844;2022-10-15T15:08:22;16.90;99.90
20891;DHT22;10605;52.968;8.844;2022-10-15T15:10:56;16.90;99.90
20891;DHT22;10605;52.968;8.844;2022-10-15T15:13:24;16.80;99.90
20891;DHT22;10605;52.968;8.844;2022-10-15T15:15:50;16.80;99.90
20891;DHT22;10605;52.968;8.844;2022-10-15T15:18:34;16.70;99.90
20891;DHT22;10605;52.968;8.844;2022-10-15T15:21:16;16.70;99.90
20891;DHT22;10605;52.968;8.844;2022-10-15T15:23:44;16.70;99.90
20891;DHT22;10605;52.968;8.844;2022-10-15T15:26:18;16.80;99.90
20891;DHT22;10605;52.968;8.844;2022-10-15T15:29:19;16.70;99.90
20891;DHT22;10605;52.968;8.844;2022-10-15T15:31:47;16.50;99.90
20891;DHT22;10605;52.968;8.844;2022-10-15T15:34:12;16.50;99.90
20891;DHT22;10605;52.968;8.844;2022-10-15T15:36:38;16.40;99.90
20891;DHT22;10605;52.968;8.844;2022-10-15T15:39:12;16.40;99.90
20891;DHT22;10605;52.968;8.844;2022-10-15T15:41:50;16.50;99.90
20891;DHT22;10605;52.968;8.844;2022-10-15T15:44:16;16.60;99.90
20891;DHT22;10605;52.968;8.844;2022-10-15T15:46:47;16.60;99.90
20891;DHT22;10605;52.968;8.844;2022-10-15T15:49:18;16.70;99.90
20891;DHT22;10605;52.968;8.844;2022-10-15T15:51:51;16.60;99.90
20891;DHT22;10605;52.968;8.844;2022-10-15T15:54:17;16.50;99.90
20891;DHT22;10605;52.968;8.844;2022-10-15T15:56:45;16.50;99.90
20891;DHT22;10605;52.968;8.844;2022-10-15T15:59:11;16.40;99.90
20891;DHT22;10605;52.968;8.844;2022-10-15T16:01:40;16.40;99.90
20891;DHT22;10605;52.968;8.844;2022-10-15T16:04:08;16.40;99.90
20891;DHT22;10605;52.968;8.844;2022-10-15T16:06:34;16.30;99.90
20891;DHT22;10605;52.968;8.844;2022-10-15T16:09:00;16.30;99.90
20891;DHT22;10605;52.968;8.844;2022-10-15T16:11:28;16.30;99.90
20891;DHT22;10605;52.968;8.844;2022-10-15T16:13:54;16.30;99.90
20891;DHT22;10605;52.968;8.844;2022-10-15T16:16:23;16.20;99.90
20891;DHT22;10605;52.968;8.844;2022-10-15T16:18:49;16.20;99.90
20891;DHT22;10605;52.968;8.844;2022-10-15T16:21:38;16.30;99.90
20891;DHT22;10605;52.968;8.844;2022-10-15T16:24:04;16.20;99.90
20891;DHT22;10605;52.968;8.844;2022-10-15T16:26:30;16.20;99.90
20891;DHT22;10605;52.968;8.844;2022-10-15T16:28:58;16.20;99.90
20891;DHT22;10605;52.968;8.844;2022-10-15T16:31:28;16.20;99.90
20891;DHT22;10605;52.968;8.844;2022-10-15T16:33:54;16.30;99.90
20891;DHT22;10605;52.968;8.844;2022-10-15T16:36:20;16.30;99.90
20891;DHT22;10605;52.968;8.844;2022-10-15T16:38:46;16.30;99.90
20891;DHT22;10605;52.968;8.844;2022-10-15T16:41:14;16.30;99.90
20891;DHT22;10605;52.968;8.844;2022-10-15T16:43:40;16.30;99.90
20891;DHT22;10605;52.968;8.844;2022-10-15T16:46:09;16.30;99.90
20891;DHT22;10605;52.968;8.844;2022-10-15T16:48:34;16.30;99.90
20891;DHT22;10605;52.968;8.844;2022-10-15T16:51:06;16.30;99.90
20891;DHT22;10605;52.968;8.844;2022-10-15T16:53:36;16.30;99.90
20891;DHT22;10605;52.968;8.844;2022-10-15T16:56:08;16.30;99.90
20891;DHT22;10605;52.968;8.844;2022-10-15T16:58:34;16.20;99.90
20891;DHT22;10605;52.968;8.844;2022-10-15T17:01:10;16.30;99.90
20891;DHT22;10605;52.968;8.844;2022-10-15T17:03:42;16.20;99.90
20891;DHT22;10605;52.968;8.844;2022-10-15T17:06:10;16.20;99.90
20891;DHT22;10605;52.968;8.844;2022-10-15T17:08:42;16.20;99.90
20891;DHT22;10605;52.968;8.844;2022-10-15T17:11:10;16.10;99.90
20891;DHT22;10605;52.968;8.844;2022-10-15T17:13:36;16.10;99.90
20891;DHT22;10605;52.968;8.844;2022-10-15T17:18:41;16.20;99.90
20891;DHT22;10605;52.968;8.844;2022-10-15T17:21:11;16.20;99.90
20891;DHT22;10605;52.968;8.844;2022-10-15T17:23:38;16.20;99.90
20891;DHT22;10605;52.968;8.844;2022-10-15T17:26:07;16.20;99.90
20891;DHT22;10605;52.968;8.844;2022-10-15T17:28:36;16.20;99.90
20891;DHT22;10605;52.968;8.844;2022-10-15T17:31:09;16.20;99.90
20891;DHT22;10605;52.968;8.844;2022-10-15T17:33:36;16.20;99.90
20891;DHT22;10605;52.968;8.844;2022-10-15T17:36:04;16.20;99.90
20891;DHT22;10605;52.968;8.844;2022-10-15T17:38:30;16.20;99.90
20891;DHT22;10605;52.968;8.844;2022-10-15T17:40:56;16.20;99.90
20891;DHT22;10605;52.968;8.844;2022-10-15T17:43:23;16.10;99.90
20891;DHT22;10605;52.968;8.844;2022-10-15T17:45:49;16.10;99.90
20891;DHT22;10605;52.968;8.844;2022-10-15T17:48:14;16.10;99.90
20891;DHT22;10605;52.968;8.844;2022-10-15T17:50:43;16.10;99.90
20891;DHT22;10605;52.968;8.844;2022-10-15T17:53:11;16.10;99.90
20891;DHT22;10605;52.968;8.844;2022-10-15T17:55:37;16.10;99.90
20891;DHT22;10605;52.968;8.844;2022-10-15T17:58:03;16.00;99.90
20891;DHT22;10605;52.968;8.844;2022-10-15T18:03:45;16.10;99.90
20891;DHT22;10605;52.968;8.844;2022-10-15T18:06:22;16.00;99.90
20891;DHT22;10605;52.968;8.844;2022-10-15T18:08:49;15.90;99.90
20891;DHT22;10605;52.968;8.844;2022-10-15T18:11:20;15.90;99.90
20891;DHT22;10605;52.968;8.844;2022-10-15T18:13:48;15.90;99.90
20891;DHT22;10605;52.968;8.844;2022-10-15T18:16:13;15.80;99.90
20891;DHT22;10605;52.968;8.844;2022-10-15T18:18:45;15.70;99.90
20891;DHT22;10605;52.968;8.844;2022-10-15T18:21:13;15.60;99.90
20891;DHT22;10605;52.968;8.844;2022-10-15T18:23:43;15.60;99.90
20891;DHT22;10605;52.968;8.844;2022-10-15T18:26:17;15.50;99.90
20891;DHT22;10605;52.968;8.844;2022-10-15T18:29:05;15.50;99.90
20891;DHT22;10605;52.968;8.844;2022-10-15T18:31:30;15.40;99.90
20891;DHT22;10605;52.968;8.844;2022-10-15T18:33:56;15.40;99.90
20891;DHT22;10605;52.968;8.844;2022-10-15T18:36:36;15.40;99.90
20891;DHT22;10605;52.968;8.844;2022-10-15T18:39:08;15.30;99.90
20891;DHT22;10605;52.968;8.844;2022-10-15T18:41:37;15.30;99.90
20891;DHT22;10605;52.968;8.844;2022-10-15T18:44:11;15.20;99.90
20891;DHT22;10605;52.968;8.844;2022-10-15T18:46:39;15.20;99.90
20891;DHT22;10605;52.968;8.844;2022-10-15T18:49:06;15.20;99.90
20891;DHT22;10605;52.968;8.844;2022-10-15T18:51:32;15.10;99.90
20891;DHT22;10605;52.968;8.844;2022-10-15T18:53:58;15.10;99.90
20891;DHT22;10605;52.968;8.844;2022-10-15T18:56:24;15.10;99.90
20891;DHT22;10605;52.968;8.844;2022-10-15T18:58:50;15.10;99.90
20891;DHT22;10605;52.968;8.844;2022-10-15T19:01:35;15.10;99.90
20891;DHT22;10605;52.968;8.844;2022-10-15T19:04:04;15.10;99.90
20891;DHT22;10605;52.968;8.844;2022-10-15T19:06:39;15.10;99.90
20891;DHT22;10605;52.968;8.844;2022-10-15T19:09:08;15.10;99.90
20891;DHT22;10605;52.968;8.844;2022-10-15T19:11:34;15.10;99.90
20891;DHT22;10605;52.968;8.844;2022-10-15T19:14:01;15.10;99.90
20891;DHT22;10605;52.968;8.844;2022-10-15T19:16:27;15.20;99.90
20891;DHT22;10605;52.968;8.844;2022-10-15T19:18:52;15.20;99.90
20891;DHT22;10605;52.968;8.844;2022-10-15T19:21:21;15.20;99.90
20891;DHT22;10605;52.968;8.844;2022-10-15T19:23:46;15.20;99.90
20891;DHT22;10605;52.968;8.844;2022-10-15T19:26:18;15.30;99.90
20891;DHT22;10605;52.968;8.844;2022-10-15T19:28:53;15.30;99.90
20891;DHT22;10605;52.968;8.844;2022-10-15T19:31:33;15.30;99.90
20891;DHT22;10605;52.968;8.844;2022-10-15T19:33:59;15.30;99.90
20891;DHT22;10605;52.968;8.844;2022-10-15T19:36:28;15.20;99.90
20891;DHT22;10605;52.968;8.844;2022-10-15T19:38:55;15.20;99.90
20891;DHT22;10605;52.968;8.844;2022-10-15T19:41:21;15.20;99.90
20891;DHT22;10605;52.968;8.844;2022-10-15T19:43:49;15.20;99.90
20891;DHT22;10605;52.968;8.844;2022-10-15T19:46:15;15.20;99.90
20891;DHT22;10605;52.968;8.844;2022-10-15T19:48:58;15.20;99.90
20891;DHT22;10605;52.968;8.844;2022-10-15T19:51:24;15.20;99.90
20891;DHT22;10605;52.968;8.844;2022-10-15T19:53:51;15.10;99.90
20891;DHT22;10605;52.968;8.844;2022-10-15T19:56:21;15.10;99.90
20891;DHT22;10605;52.968;8.844;2022-10-15T19:58:54;15.00;99.90
20891;DHT22;10605;52.968;8.844;2022-10-15T20:01:26;15.00;99.90
20891;DHT22;10605;52.968;8.844;2022-10-15T20:03:56;14.90;99.90
20891;DHT22;10605;52.968;8.844;2022-10-15T20:06:22;14.90;99.90
20891;DHT22;10605;52.968;8.844;2022-10-15T20:08:51;14.90;99.90
20891;DHT22;10605;52.968;8.844;2022-10-15T20:11:17;14.80;99.90
20891;DHT22;10605;52.968;8.844;2022-10-15T20:13:46;14.80;99.90
20891;DHT22;10605;52.968;8.844;2022-10-15T20:16:12;14.70;99.90
20891;DHT22;10605;52.968;8.844;2022-10-15T20:18:43;14.70;99.90
20891;DHT22;10605;52.968;8.844;2022-10-15T20:21:11;14.70;99.90
20891;DHT22;10605;52.968;8.844;2022-10-15T20:23:38;14.60;99.90
20891;DHT22;10605;52.968;8.844;2022-10-15T20:26:11;14.60;99.90
20891;DHT22;10605;52.968;8.844;2022-10-15T20:28:46;14.50;99.90
20891;DHT22;10605;52.968;8.844;2022-10-15T20:31:16;14.50;99.90
20891;DHT22;10605;52.968;8.844;2022-10-15T20:33:45;14.50;99.90
20891;DHT22;10605;52.968;8.844;2022-10-15T20:36:13;14.40;99.90
20891;DHT22;10605;52.968;8.844;2022-10-15T20:38:40;14.40;99.90
20891;DHT22;10605;52.968;8.844;2022-10-15T20:41:15;14.40;99.90
20891;DHT22;10605;52.968;8.844;2022-10-15T20:43:42;14.40;99.90
20891;DHT22;10605;52.968;8.844;2022-10-15T20:46:13;14.30;99.90
20891;DHT22;10605;52.968;8.844;2022-10-15T20:48:47;14.30;99.90
20891;DHT22;10605;52.968;8.844;2022-10-15T20:51:15;14.30;99.90
20891;DHT22;10605;52.968;8.844;2022-10-15T20:53:42;14.30;99.90
20891;DHT22;10605;52.968;8.844;2022-10-15T20:56:08;14.30;99.90
20891;DHT22;10605;52.968;8.844;2022-10-15T20:58:34;14.20;99.90
20891;DHT22;10605;52.968;8.844;2022-10-15T21:01:00;14.20;99.90
20891;DHT22;10605;52.968;8.844;2022-10-15T21:03:27;14.20;99.90
20891;DHT22;10605;52.968;8.844;2022-10-15T21:05:56;14.20;99.90
20891;DHT22;10605;52.968;8.844;2022-10-15T21:08:21;14.20;99.90
20891;DHT22;10605;52.968;8.844;2022-10-15T21:10:48;14.10;99.90
20891;DHT22;10605;52.968;8.844;2022-10-15T21:13:15;14.10;99.90
20891;DHT22;10605;52.968;8.844;2022-10-15T21:15:40;14.10;99.90
20891;DHT22;10605;52.968;8.844;2022-10-15T21:18:06;14.10;99.90
20891;DHT22;10605;52.968;8.844;2022-10-15T21:20:32;14.10;99.90
20891;DHT22;10605;52.968;8.844;2022-10-15T21:22:57;14.10;99.90
20891;DHT22;10605;52.968;8.844;2022-10-15T21:25:26;14.10;99.90
20891;DHT22;10605;52.968;8.844;2022-10-15T21:27:51;14.10;99.90
20891;DHT22;10605;52.968;8.844;2022-10-15T21:30:17;14.00;99.90
20891;DHT22;10605;52.968;8.844;2022-10-15T21:32:43;14.00;99.90
20891;DHT22;10605;52.968;8.844;2022-10-15T21:35:09;14.00;99.90
20891;DHT22;10605;52.968;8.844;2022-10-15T21:37:36;13.90;99.90
20891;DHT22;10605;52.968;8.844;2022-10-15T21:40:03;13.90;99.90
20891;DHT22;10605;52.968;8.844;2022-10-15T21:42:35;13.90;99.90
20891;DHT22;10605;52.968;8.844;2022-10-15T21:45:01;13.80;99.90
20891;DHT22;10605;52.968;8.844;2022-10-15T21:47:26;13.80;99.90
20891;DHT22;10605;52.968;8.844;2022-10-15T21:49:52;13.80;99.90
20891;DHT22;10605;52.968;8.844;2022-10-15T21:52:27;13.70;99.90
20891;DHT22;10605;52.968;8.844;2022-10-15T21:54:52;13.70;99.90
20891;DHT22;10605;52.968;8.844;2022-10-15T21:57:25;13.70;99.90
20891;DHT22;10605;52.968;8.844;2022-10-15T21:59:54;13.70;99.90
20891;DHT22;10605;52.968;8.844;2022-10-15T22:02:22;13.70;99.90
20891;DHT22;10605;52.968;8.844;2022-10-15T22:04:50;13.60;99.90
20891;DHT22;10605;52.968;8.844;2022-10-15T22:07:18;13.70;99.90
20891;DHT22;10605;52.968;8.844;2022-10-15T22:09:49;13.70;99.90
20891;DHT22;10605;52.968;8.844;2022-10-15T22:12:15;13.70;99.90
20891;DHT22;10605;52.968;8.844;2022-10-15T22:14:44;13.70;99.90
20891;DHT22;10605;52.968;8.844;2022-10-15T22:17:13;13.60;99.90
20891;DHT22;10605;52.968;8.844;2022-10-15T22:19:42;13.60;99.90
20891;DHT22;10605;52.968;8.844;2022-10-15T22:22:11;13.60;99.90
20891;DHT22;10605;52.968;8.844;2022-10-15T22:24:37;13.60;99.90
20891;DHT22;10605;52.968;8.844;2022-10-15T22:27:02;13.60;99.90
20891;DHT22;10605;52.968;8.844;2022-10-15T22:29:37;13.50;99.90
20891;DHT22;10605;52.968;8.844;2022-10-15T22:32:13;13.50;99.90
20891;DHT22;10605;52.968;8.844;2022-10-15T22:34:39;13.50;99.90
20891;DHT22;10605;52.968;8.844;2022-10-15T22:37:04;13.50;99.90
20891;DHT22;10605;52.968;8.844;2022-10-15T22:39:30;13.40;99.90
20891;DHT22;10605;52.968;8.844;2022-10-15T22:41:56;13.40;99.90
20891;DHT22;10605;52.968;8.844;2022-10-15T22:44:24;13.40;99.90
20891;DHT22;10605;52.968;8.844;2022-10-15T22:46:49;13.40;99.90
20891;DHT22;10605;52.968;8.844;2022-10-15T22:49:18;13.40;99.90
20891;DHT22;10605;52.968;8.844;2022-10-15T22:51:51;13.30;99.90
20891;DHT22;10605;52.968;8.844;2022-10-15T22:54:35;13.30;99.90
20891;DHT22;10605;52.968;8.844;2022-10-15T22:57:01;13.30;99.90
20891;DHT22;10605;52.968;8.844;2022-10-15T22:59:30;13.30;99.90
20891;DHT22;10605;52.968;8.844;2022-10-15T23:01:55;13.30;99.90
20891;DHT22;10605;52.968;8.844;2022-10-15T23:04:29;13.20;99.90
20891;DHT22;10605;52.968;8.844;2022-10-15T23:06:58;13.20;99.90
20891;DHT22;10605;52.968;8.844;2022-10-15T23:09:26;13.10;99.90
20891;DHT22;10605;52.968;8.844;2022-10-15T23:11:52;13.10;99.90
20891;DHT22;10605;52.968;8.844;2022-10-15T23:14:17;13.00;99.90
20891;DHT22;10605;52.968;8.844;2022-10-15T23:16:45;13.00;99.90
20891;DHT22;10605;52.968;8.844;2022-10-15T23:19:29;13.00;99.90
20891;DHT22;10605;52.968;8.844;2022-10-15T23:21:56;13.00;99.90
20891;DHT22;10605;52.968;8.844;2022-10-15T23:24:25;13.00;99.90
20891;DHT22;10605;52.968;8.844;2022-10-15T23:26:54;13.00;99.90
20891;DHT22;10605;52.968;8.844;2022-10-15T23:29:24;13.00;99.90
20891;DHT22;10605;52.968;8.844;2022-10-15T23:31:51;13.00;99.90
20891;DHT22;10605;52.968;8.844;2022-10-15T23:34:19;13.00;99.90
20891;DHT22;10605;52.968;8.844;2022-10-15T23:36:46;13.00;99.90
20891;DHT22;10605;52.968;8.844;2022-10-15T23:39:25;12.90;99.90
20891;DHT22;10605;52.968;8.844;2022-10-15T23:41:52;12.90;99.90
20891;DHT22;10605;52.968;8.844;2022-10-15T23:44:23;12.90;99.90
20891;DHT22;10605;52.968;8.844;2022-10-15T23:46:50;12.90;99.90
20891;DHT22;10605;52.968;8.844;2022-10-15T23:49:18;12.90;99.90
20891;DHT22;10605;52.968;8.844;2022-10-15T23:51:44;12.90;99.90
20891;DHT22;10605;52.968;8.844;2022-10-15T23:54:17;12.90;99.90
20891;DHT22;10605;52.968;8.844;2022-10-15T23:56:44;12.80;99.90
20891;DHT22;10605;52.968;8.844;2022-10-15T23:59:12;12.80;99.90
